Announcement

Collapse
No announcement yet.

Half of winter is over. The days r getting warmer !

Collapse
X
 
  • Filter
  • Time
  • Show
Clear All
new posts

  • turbotraker
    replied
    Originally posted by B7772ADL
    We're on flood alert yet again as 2 days of rain have fallen pretty much continuoulsy.

    Roll on summer!
    We have had 6 days of rain. Our roads in Manc are flooded, our rivers are are at bursting point. And theres worse to come yet. where is this global warming lark?

    Leave a comment:


  • B7772ADL
    replied
    I wish...another 2-3 months of winter to go in the UK and I totally hate it. We're on flood alert yet again as 2 days of rain have fallen pretty much continuoulsy.

    Roll on summer!

    Leave a comment:


  • Pipe
    replied
    Originally posted by el
    I don't care - we have the warmest days still to come.
    Ya well, I donīt miss the german winter. At all!

    Leave a comment:


  • Brad1711
    replied
    Well I'll be damned... I thought it was still cold out.
    KLAF 201254Z 29008KT 10SM CLR M18/M23 A3047 RMK AO2 SLP334 T11781228
    KLAF 210654Z AUTO 00000KT 10SM OVC090 M13/M17 A3065 RMK AO2 SLP391 T11281167
    KLAF 211354Z 15006KT 9SM CLR M11/M16 A3067 RMK AO2 SLP397 T11061161
    KLAF 211954Z 16013G17KT 10SM CLR M01/M15 A3041 RMK AO2 SLP306 T10061150

    Leave a comment:


  • el
    replied
    Originally posted by aardvark2zz
    Half of winter is over. The days r getting warmer !

    Jan 21 is the coldest day of the year on average for most latitudes north of the tropic of cancer.

    .
    I don't care - we have the warmest days still to come.

    Leave a comment:


  • Half of winter is over. The days r getting warmer !

    Half of winter is over. The days r getting warmer !

    Jan 21 is the coldest day of the year on average for most latitudes north of the tropic of cancer.

    .
Working...
X